sensor_id;sensor_type;location;lat;lon;timestamp;pressure;altitude;pressure_sealevel;temperature;humidity
44309;BME280;30022;55.846;37.340;2022-12-08T04:25:02;46460.22;;;-143.51;22.34
44309;BME280;30022;55.846;37.340;2022-12-08T04:27:28;46460.22;;;-143.51;22.29
44309;BME280;30022;55.846;37.340;2022-12-08T04:29:54;46456.25;;;-143.51;22.39
44309;BME280;30022;55.846;37.340;2022-12-08T04:32:19;46454.28;;;-143.51;22.37
44309;BME280;30022;55.846;37.340;2022-12-08T04:34:45;46428.63;;;-143.51;22.31
44309;BME280;30022;55.846;37.340;2022-12-08T04:37:10;46466.13;;;-143.51;22.57
44309;BME280;30022;55.846;37.340;2022-12-08T04:39:36;46464.16;;;-143.51;22.34
44309;BME280;30022;55.846;37.340;2022-12-08T04:42:01;46440.47;;;-143.51;22.40
44309;BME280;30022;55.846;37.340;2022-12-08T04:44:27;46466.13;;;-143.51;22.50
44309;BME280;30022;55.846;37.340;2022-12-08T04:46:53;46440.47;;;-143.51;22.42
44309;BME280;30022;55.846;37.340;2022-12-08T04:49:18;46462.19;;;-143.51;22.78
44309;BME280;30022;55.846;37.340;2022-12-08T04:51:44;46462.19;;;-143.51;22.45
44309;BME280;30022;55.846;37.340;2022-12-08T04:54:09;46458.22;;;-143.51;22.92
44309;BME280;30022;55.846;37.340;2022-12-08T04:56:35;46474.03;;;-143.51;22.53
44309;BME280;30022;55.846;37.340;2022-12-08T04:59:01;46468.09;;;-143.51;22.32
44309;BME280;30022;55.846;37.340;2022-12-08T05:01:27;46448.38;;;-143.51;22.45
44309;BME280;30022;55.846;37.340;2022-12-08T05:03:52;46464.16;;;-143.51;23.28
44309;BME280;30022;55.846;37.340;2022-12-08T05:06:18;46489.84;;;-143.51;23.50
44309;BME280;30022;55.846;37.340;2022-12-08T05:08:43;46458.22;;;-143.51;23.22
44309;BME280;30022;55.846;37.340;2022-12-08T05:11:09;46442.44;;;-143.51;23.05
44309;BME280;30022;55.846;37.340;2022-12-08T05:13:35;46452.31;;;-143.51;22.71
44309;BME280;30022;55.846;37.340;2022-12-08T05:16:02;46468.09;;;-143.51;22.98
44309;BME280;30022;55.846;37.340;2022-12-08T05:18:28;46460.22;;;-143.51;22.64
44309;BME280;30022;55.846;37.340;2022-12-08T05:20:54;46474.03;;;-143.51;22.64
44309;BME280;30022;55.846;37.340;2022-12-08T05:23:19;46464.16;;;-143.51;22.67
44309;BME280;30022;55.846;37.340;2022-12-08T05:25:45;46436.50;;;-143.51;22.45
44309;BME280;30022;55.846;37.340;2022-12-08T05:28:11;46444.41;;;-143.51;22.34
44309;BME280;30022;55.846;37.340;2022-12-08T05:30:36;46460.22;;;-143.51;22.61
44309;BME280;30022;55.846;37.340;2022-12-08T05:33:02;46448.38;;;-143.51;23.10
44309;BME280;30022;55.846;37.340;2022-12-08T05:35:27;46470.09;;;-143.51;22.38
44309;BME280;30022;55.846;37.340;2022-12-08T05:37:53;46476.00;;;-143.51;22.98
44309;BME280;30022;55.846;37.340;2022-12-08T05:40:18;46464.16;;;-143.51;22.44
44309;BME280;30022;55.846;37.340;2022-12-08T05:42:44;46462.19;;;-143.51;22.68
44309;BME280;30022;55.846;37.340;2022-12-08T05:45:10;46458.22;;;-143.51;22.80
44309;BME280;30022;55.846;37.340;2022-12-08T05:47:35;46458.22;;;-143.51;22.76
44309;BME280;30022;55.846;37.340;2022-12-08T05:50:01;46468.09;;;-143.51;22.52
44309;BME280;30022;55.846;37.340;2022-12-08T05:52:27;46458.22;;;-143.51;22.66
44309;BME280;30022;55.846;37.340;2022-12-08T05:54:53;46434.53;;;-143.51;22.66
44309;BME280;30022;55.846;37.340;2022-12-08T05:57:18;46440.47;;;-143.51;22.65
44309;BME280;30022;55.846;37.340;2022-12-08T05:59:44;46438.50;;;-143.51;22.66
44309;BME280;30022;55.846;37.340;2022-12-08T06:02:09;46448.38;;;-143.51;22.57
44309;BME280;30022;55.846;37.340;2022-12-08T06:04:35;46458.22;;;-143.51;22.44
44309;BME280;30022;55.846;37.340;2022-12-08T06:07:01;46477.97;;;-143.51;22.37
44309;BME280;30022;55.846;37.340;2022-12-08T06:09:26;46428.63;;;-143.51;22.68
44309;BME280;30022;55.846;37.340;2022-12-08T06:11:52;46489.84;;;-143.51;22.50
44309;BME280;30022;55.846;37.340;2022-12-08T06:14:24;46448.38;;;-143.51;22.74
44309;BME280;30022;55.846;37.340;2022-12-08T06:16:50;46450.34;;;-143.51;22.43
44309;BME280;30022;55.846;37.340;2022-12-08T06:19:15;46444.41;;;-143.51;22.61
44309;BME280;30022;55.846;37.340;2022-12-08T06:21:41;46450.34;;;-143.51;22.40
44309;BME280;30022;55.846;37.340;2022-12-08T06:24:07;46452.31;;;-143.51;22.80
44309;BME280;30022;55.846;37.340;2022-12-08T06:26:32;46458.22;;;-143.51;22.26
44309;BME280;30022;55.846;37.340;2022-12-08T06:29:00;46464.16;;;-143.51;22.71
44309;BME280;30022;55.846;37.340;2022-12-08T06:31:26;46428.63;;;-143.51;22.22
44309;BME280;30022;55.846;37.340;2022-12-08T06:33:52;46468.09;;;-143.51;22.79
44309;BME280;30022;55.846;37.340;2022-12-08T06:36:19;46452.31;;;-143.51;23.02
44309;BME280;30022;55.846;37.340;2022-12-08T06:38:45;46481.94;;;-143.51;22.82
44309;BME280;30022;55.846;37.340;2022-12-08T06:41:11;46456.25;;;-143.51;22.82
44309;BME280;30022;55.846;37.340;2022-12-08T06:43:37;46448.38;;;-143.51;22.34
44309;BME280;30022;55.846;37.340;2022-12-08T06:46:04;46428.63;;;-143.51;22.75
44309;BME280;30022;55.846;37.340;2022-12-08T06:48:30;46460.22;;;-143.51;22.51
44309;BME280;30022;55.846;37.340;2022-12-08T06:50:55;46444.41;;;-143.51;22.74
44309;BME280;30022;55.846;37.340;2022-12-08T06:53:21;46444.41;;;-143.51;22.71
44309;BME280;30022;55.846;37.340;2022-12-08T06:55:49;46438.50;;;-143.51;22.61
44309;BME280;30022;55.846;37.340;2022-12-08T06:58:15;46452.31;;;-143.51;22.50
44309;BME280;30022;55.846;37.340;2022-12-08T07:00:41;46442.44;;;-143.51;22.40
44309;BME280;30022;55.846;37.340;2022-12-08T07:03:07;46442.44;;;-143.51;22.50
44309;BME280;30022;55.846;37.340;2022-12-08T07:05:34;46430.59;;;-143.51;22.58
44309;BME280;30022;55.846;37.340;2022-12-08T07:08:00;46436.50;;;-143.51;22.90
44309;BME280;30022;55.846;37.340;2022-12-08T07:10:25;46440.47;;;-143.51;22.74
44309;BME280;30022;55.846;37.340;2022-12-08T07:12:51;46448.38;;;-143.51;22.51
44309;BME280;30022;55.846;37.340;2022-12-08T07:15:16;46448.38;;;-143.51;22.76
44309;BME280;30022;55.846;37.340;2022-12-08T07:17:42;46436.50;;;-143.51;22.17
44309;BME280;30022;55.846;37.340;2022-12-08T07:20:07;46434.53;;;-143.51;22.68
44309;BME280;30022;55.846;37.340;2022-12-08T07:22:33;46452.31;;;-143.51;22.98
44309;BME280;30022;55.846;37.340;2022-12-08T07:24:59;46485.88;;;-143.51;22.77
44309;BME280;30022;55.846;37.340;2022-12-08T07:27:24;46474.03;;;-143.51;22.29
44309;BME280;30022;55.846;37.340;2022-12-08T07:29:50;46462.19;;;-143.51;22.54
44309;BME280;30022;55.846;37.340;2022-12-08T07:32:15;46458.22;;;-143.51;22.47
44309;BME280;30022;55.846;37.340;2022-12-08T07:34:41;46440.47;;;-143.51;22.71
44309;BME280;30022;55.846;37.340;2022-12-08T07:37:07;46458.22;;;-143.51;22.50
44309;BME280;30022;55.846;37.340;2022-12-08T07:39:33;46450.34;;;-143.51;22.21
44309;BME280;30022;55.846;37.340;2022-12-08T07:41:58;46450.34;;;-143.51;22.77
44309;BME280;30022;55.846;37.340;2022-12-08T07:44:25;46466.13;;;-143.51;22.69
44309;BME280;30022;55.846;37.340;2022-12-08T07:46:51;46458.22;;;-143.51;22.57
44309;BME280;30022;55.846;37.340;2022-12-08T07:49:16;46470.09;;;-143.51;22.79
44309;BME280;30022;55.846;37.340;2022-12-08T07:51:42;46432.56;;;-143.51;22.57
44309;BME280;30022;55.846;37.340;2022-12-08T07:54:10;46464.16;;;-143.51;22.85
44309;BME280;30022;55.846;37.340;2022-12-08T07:56:35;46448.38;;;-143.51;22.56
44309;BME280;30022;55.846;37.340;2022-12-08T07:59:02;46440.47;;;-143.51;22.79
44309;BME280;30022;55.846;37.340;2022-12-08T08:01:29;46458.22;;;-143.51;22.82
44309;BME280;30022;55.846;37.340;2022-12-08T08:03:56;46468.09;;;-143.51;22.46
44309;BME280;30022;55.846;37.340;2022-12-08T08:06:22;46428.63;;;-143.51;22.60
44309;BME280;30022;55.846;37.340;2022-12-08T08:08:48;46466.13;;;-143.51;22.79
44309;BME280;30022;55.846;37.340;2022-12-08T08:11:13;46458.22;;;-143.51;22.68
44309;BME280;30022;55.846;37.340;2022-12-08T08:13:39;46460.22;;;-143.51;22.63
44309;BME280;30022;55.846;37.340;2022-12-08T08:16:05;46458.22;;;-143.51;22.51
44309;BME280;30022;55.846;37.340;2022-12-08T08:18:32;46436.50;;;-143.51;22.27
44309;BME280;30022;55.846;37.340;2022-12-08T08:20:57;46464.16;;;-143.51;22.33
44309;BME280;30022;55.846;37.340;2022-12-08T08:23:23;46472.06;;;-143.51;22.38
44309;BME280;30022;55.846;37.340;2022-12-08T08:25:49;46446.38;;;-143.51;22.55
44309;BME280;30022;55.846;37.340;2022-12-08T08:28:14;46460.22;;;-143.51;22.51
44309;BME280;30022;55.846;37.340;2022-12-08T08:30:40;46462.19;;;-143.51;22.05
44309;BME280;30022;55.846;37.340;2022-12-08T08:33:06;46462.19;;;-143.51;22.39
44309;BME280;30022;55.846;37.340;2022-12-08T08:35:32;46448.38;;;-143.51;22.46
44309;BME280;30022;55.846;37.340;2022-12-08T08:37:58;46468.09;;;-143.51;22.63
44309;BME280;30022;55.846;37.340;2022-12-08T08:40:23;46474.03;;;-143.51;22.34
44309;BME280;30022;55.846;37.340;2022-12-08T08:42:49;46483.91;;;-143.51;22.35
44309;BME280;30022;55.846;37.340;2022-12-08T08:45:15;46456.25;;;-143.51;22.35
44309;BME280;30022;55.846;37.340;2022-12-08T08:47:40;46432.56;;;-143.51;22.40
44309;BME280;30022;55.846;37.340;2022-12-08T08:50:06;46460.22;;;-143.51;22.41
44309;BME280;30022;55.846;37.340;2022-12-08T08:52:31;46472.06;;;-143.51;22.18
44309;BME280;30022;55.846;37.340;2022-12-08T08:54:57;46458.22;;;-143.51;22.72
44309;BME280;30022;55.846;37.340;2022-12-08T08:57:22;46476.00;;;-143.51;22.51
44309;BME280;30022;55.846;37.340;2022-12-08T08:59:49;46470.09;;;-143.51;22.77
44309;BME280;30022;55.846;37.340;2022-12-08T09:02:15;46460.22;;;-143.51;22.50
44309;BME280;30022;55.846;37.340;2022-12-08T09:04:41;46472.06;;;-143.51;22.73
44309;BME280;30022;55.846;37.340;2022-12-08T09:07:07;46418.75;;;-143.51;22.45
44309;BME280;30022;55.846;37.340;2022-12-08T09:09:33;46452.31;;;-143.51;22.59
44309;BME280;30022;55.846;37.340;2022-12-08T09:11:58;46456.25;;;-143.51;22.47
44309;BME280;30022;55.846;37.340;2022-12-08T09:14:24;46448.38;;;-143.51;22.47
44309;BME280;30022;55.846;37.340;2022-12-08T09:16:50;46464.16;;;-143.51;22.55
44309;BME280;30022;55.846;37.340;2022-12-08T09:19:15;46481.94;;;-143.51;22.23
44309;BME280;30022;55.846;37.340;2022-12-08T09:21:41;46472.06;;;-143.51;22.21
44309;BME280;30022;55.846;37.340;2022-12-08T09:24:06;46444.41;;;-143.51;22.26
44309;BME280;30022;55.846;37.340;2022-12-08T09:26:39;46466.13;;;-143.51;22.47
44309;BME280;30022;55.846;37.340;2022-12-08T09:29:05;46472.06;;;-143.51;22.40
44309;BME280;30022;55.846;37.340;2022-12-08T09:31:31;46450.34;;;-143.51;22.44
44309;BME280;30022;55.846;37.340;2022-12-08T09:33:57;46440.47;;;-143.51;22.74
44309;BME280;30022;55.846;37.340;2022-12-08T09:36:23;46474.03;;;-143.51;22.69
44309;BME280;30022;55.846;37.340;2022-12-08T09:38:50;46430.59;;;-143.51;22.55
44309;BME280;30022;55.846;37.340;2022-12-08T09:41:32;46462.19;;;-143.51;22.95
44309;BME280;30022;55.846;37.340;2022-12-08T09:44:05;46485.88;;;-143.51;22.74
44309;BME280;30022;55.846;37.340;2022-12-08T09:46:33;46477.97;;;-143.51;22.58
44309;BME280;30022;55.846;37.340;2022-12-08T09:48:59;46479.97;;;-143.51;22.17
44309;BME280;30022;55.846;37.340;2022-12-08T09:51:29;46460.22;;;-143.51;22.22
44309;BME280;30022;55.846;37.340;2022-12-08T09:56:41;46466.13;;;-143.51;22.23
44309;BME280;30022;55.846;37.340;2022-12-08T10:01:33;46479.97;;;-143.51;22.69
44309;BME280;30022;55.846;37.340;2022-12-08T10:04:02;46479.97;;;-143.51;22.92
44309;BME280;30022;55.846;37.340;2022-12-08T10:08:57;46495.75;;;-143.51;22.81
44309;BME280;30022;55.846;37.340;2022-12-08T10:11:35;46481.94;;;-143.51;22.62
44309;BME280;30022;55.846;37.340;2022-12-08T10:16:41;46477.97;;;-143.51;22.59
44309;BME280;30022;55.846;37.340;2022-12-08T10:19:14;46440.47;;;-143.51;22.69
44309;BME280;30022;55.846;37.340;2022-12-08T10:21:42;46497.72;;;-143.51;22.81
44309;BME280;30022;55.846;37.340;2022-12-08T10:24:30;46499.72;;;-143.51;22.52
44309;BME280;30022;55.846;37.340;2022-12-08T10:26:56;46456.25;;;-143.51;22.93
44309;BME280;30022;55.846;37.340;2022-12-08T10:29:22;46466.13;;;-143.51;22.73
44309;BME280;30022;55.846;37.340;2022-12-08T10:31:48;46481.94;;;-143.51;22.60
44309;BME280;30022;55.846;37.340;2022-12-08T10:34:22;46485.88;;;-143.51;22.63
44309;BME280;30022;55.846;37.340;2022-12-08T10:36:53;46472.06;;;-143.51;22.73
44309;BME280;30022;55.846;37.340;2022-12-08T10:39:26;46464.16;;;-143.51;22.92
44309;BME280;30022;55.846;37.340;2022-12-08T10:41:53;46468.09;;;-143.51;23.03
44309;BME280;30022;55.846;37.340;2022-12-08T10:44:24;46430.59;;;-143.51;23.09
44309;BME280;30022;55.846;37.340;2022-12-08T10:46:50;46442.44;;;-143.51;22.87
44309;BME280;30022;55.846;37.340;2022-12-08T10:49:20;46434.53;;;-143.51;22.92
44309;BME280;30022;55.846;37.340;2022-12-08T10:51:49;46476.00;;;-143.51;22.69
44309;BME280;30022;55.846;37.340;2022-12-08T10:56:53;46456.25;;;-143.51;22.86
44309;BME280;30022;55.846;37.340;2022-12-08T10:59:20;46501.69;;;-143.51;22.82
44309;BME280;30022;55.846;37.340;2022-12-08T11:01:46;46466.13;;;-143.51;23.00
44309;BME280;30022;55.846;37.340;2022-12-08T11:04:16;46452.31;;;-143.51;22.67
44309;BME280;30022;55.846;37.340;2022-12-08T11:06:43;46481.94;;;-143.51;23.00
44309;BME280;30022;55.846;37.340;2022-12-08T11:14:18;46472.06;;;-143.51;22.74
44309;BME280;30022;55.846;37.340;2022-12-08T11:16:44;46483.91;;;-143.51;22.80
44309;BME280;30022;55.846;37.340;2022-12-08T11:19:16;46479.97;;;-143.51;22.77
44309;BME280;30022;55.846;37.340;2022-12-08T11:21:42;46485.88;;;-143.51;22.77
44309;BME280;30022;55.846;37.340;2022-12-08T11:26:40;46483.91;;;-143.51;22.90
44309;BME280;30022;55.846;37.340;2022-12-08T11:29:10;46481.94;;;-143.51;22.88
44309;BME280;30022;55.846;37.340;2022-12-08T11:31:40;46483.91;;;-143.51;22.77
44309;BME280;30022;55.846;37.340;2022-12-08T11:34:09;46462.19;;;-143.51;22.77
44309;BME280;30022;55.846;37.340;2022-12-08T11:36:40;46479.97;;;-143.51;22.87
44309;BME280;30022;55.846;37.340;2022-12-08T11:39:06;46511.56;;;-143.51;22.92
44309;BME280;30022;55.846;37.340;2022-12-08T11:41:40;46464.16;;;-143.51;22.80
44309;BME280;30022;55.846;37.340;2022-12-08T11:47:00;46464.16;;;-143.51;22.77
44309;BME280;30022;55.846;37.340;2022-12-08T11:49:34;46464.16;;;-143.51;23.19
44309;BME280;30022;55.846;37.340;2022-12-08T11:54:41;46472.06;;;-143.51;22.78
44309;BME280;30022;55.846;37.340;2022-12-08T11:57:11;46487.84;;;-143.51;22.84
44309;BME280;30022;55.846;37.340;2022-12-08T11:59:41;46509.56;;;-143.51;22.48
44309;BME280;30022;55.846;37.340;2022-12-08T12:02:28;46472.06;;;-143.51;22.56
44309;BME280;30022;55.846;37.340;2022-12-08T12:05:01;46495.75;;;-143.51;22.50
44309;BME280;30022;55.846;37.340;2022-12-08T12:15:50;46450.34;;;-143.51;22.96
44309;BME280;30022;55.846;37.340;2022-12-08T12:18:24;46477.97;;;-143.51;22.68
44309;BME280;30022;55.846;37.340;2022-12-08T12:20:58;46460.22;;;-143.51;22.69
44309;BME280;30022;55.846;37.340;2022-12-08T12:23:29;46479.97;;;-143.51;22.87
44309;BME280;30022;55.846;37.340;2022-12-08T12:26:00;46464.16;;;-143.51;22.54
44309;BME280;30022;55.846;37.340;2022-12-08T12:28:40;46485.88;;;-143.51;22.72
44309;BME280;30022;55.846;37.340;2022-12-08T12:31:11;46440.47;;;-143.51;22.81
44309;BME280;30022;55.846;37.340;2022-12-08T12:33:37;46485.88;;;-143.51;22.58
44309;BME280;30022;55.846;37.340;2022-12-08T12:36:05;46503.66;;;-143.51;22.92
44309;BME280;30022;55.846;37.340;2022-12-08T12:38:33;46503.66;;;-143.51;22.44
44309;BME280;30022;55.846;37.340;2022-12-08T12:41:25;46497.72;;;-143.51;22.27
44309;BME280;30022;55.846;37.340;2022-12-08T12:46:37;46515.50;;;-143.51;22.63
44309;BME280;30022;55.846;37.340;2022-12-08T12:51:50;46513.53;;;-143.51;22.48
44309;BME280;30022;55.846;37.340;2022-12-08T12:56:48;46483.91;;;-143.51;22.52
44309;BME280;30022;55.846;37.340;2022-12-08T12:59:21;46476.00;;;-143.51;22.47
44309;BME280;30022;55.846;37.340;2022-12-08T13:01:49;46523.41;;;-143.51;22.48
44309;BME280;30022;55.846;37.340;2022-12-08T13:04:16;46497.72;;;-143.51;22.38
44309;BME280;30022;55.846;37.340;2022-12-08T13:06:44;46503.66;;;-143.51;22.43
44309;BME280;30022;55.846;37.340;2022-12-08T13:09:30;46503.66;;;-143.51;22.46
44309;BME280;30022;55.846;37.340;2022-12-08T13:11:58;46503.66;;;-143.51;22.34
44309;BME280;30022;55.846;37.340;2022-12-08T13:14:27;46501.69;;;-143.51;22.45
44309;BME280;30022;55.846;37.340;2022-12-08T13:16:53;46497.72;;;-143.51;22.44
44309;BME280;30022;55.846;37.340;2022-12-08T13:19:20;46466.13;;;-143.51;22.26
44309;BME280;30022;55.846;37.340;2022-12-08T13:32:55;46470.09;;;-143.51;22.59
44309;BME280;30022;55.846;37.340;2022-12-08T13:35:21;46477.97;;;-143.51;22.64
44309;BME280;30022;55.846;37.340;2022-12-08T13:37:50;46487.84;;;-143.51;22.59
44309;BME280;30022;55.846;37.340;2022-12-08T13:40:26;46487.84;;;-143.51;22.84
44309;BME280;30022;55.846;37.340;2022-12-08T13:43:14;46503.66;;;-143.51;22.58
44309;BME280;30022;55.846;37.340;2022-12-08T13:45:41;46476.00;;;-143.51;22.60
44309;BME280;30022;55.846;37.340;2022-12-08T13:48:12;46483.91;;;-143.51;22.62
44309;BME280;30022;55.846;37.340;2022-12-08T13:53:49;46499.72;;;-143.51;22.52
44309;BME280;30022;55.846;37.340;2022-12-08T13:55:54;46499.72;;;-143.51;22.52
44309;BME280;30022;55.846;37.340;2022-12-08T13:58:26;46501.69;;;-143.51;22.57
44309;BME280;30022;55.846;37.340;2022-12-08T14:00:57;46499.72;;;-143.51;22.53
44309;BME280;30022;55.846;37.340;2022-12-08T14:03:24;46499.72;;;-143.51;22.42
44309;BME280;30022;55.846;37.340;2022-12-08T14:05:50;46479.97;;;-143.51;22.62
44309;BME280;30022;55.846;37.340;2022-12-08T14:08:34;46495.75;;;-143.51;22.79
44309;BME280;30022;55.846;37.340;2022-12-08T14:11:02;46487.84;;;-143.51;22.59
44309;BME280;30022;55.846;37.340;2022-12-08T14:13:29;46472.06;;;-143.51;22.41
44309;BME280;30022;55.846;37.340;2022-12-08T14:15:56;46460.22;;;-143.51;22.51
44309;BME280;30022;55.846;37.340;2022-12-08T14:18:23;46497.72;;;-143.51;22.49
44309;BME280;30022;55.846;37.340;2022-12-08T14:21:03;46509.56;;;-143.51;22.64
44309;BME280;30022;55.846;37.340;2022-12-08T14:23:29;46499.72;;;-143.51;22.53
44309;BME280;30022;55.846;37.340;2022-12-08T14:25:58;46472.06;;;-143.51;22.47
44309;BME280;30022;55.846;37.340;2022-12-08T14:28:25;46493.78;;;-143.51;22.40
44309;BME280;30022;55.846;37.340;2022-12-08T14:30:51;46479.97;;;-143.51;22.41
44309;BME280;30022;55.846;37.340;2022-12-08T14:33:16;46479.97;;;-143.51;22.53
44309;BME280;30022;55.846;37.340;2022-12-08T14:35:42;46477.97;;;-143.51;22.55
44309;BME280;30022;55.846;37.340;2022-12-08T14:38:14;46499.72;;;-143.51;22.42
44309;BME280;30022;55.846;37.340;2022-12-08T14:40:45;46493.78;;;-143.51;22.55
44309;BME280;30022;55.846;37.340;2022-12-08T14:43:18;46501.69;;;-143.51;22.50
44309;BME280;30022;55.846;37.340;2022-12-08T14:53:23;46476.00;;;-143.51;22.49
44309;BME280;30022;55.846;37.340;2022-12-08T14:55:49;46481.94;;;-143.51;22.37
44309;BME280;30022;55.846;37.340;2022-12-08T14:58:16;46472.06;;;-143.51;22.44
44309;BME280;30022;55.846;37.340;2022-12-08T15:00:46;46477.97;;;-143.51;22.37
44309;BME280;30022;55.846;37.340;2022-12-08T15:03:14;46483.91;;;-143.51;22.42
44309;BME280;30022;55.846;37.340;2022-12-08T15:05:40;46481.94;;;-143.51;22.36
44309;BME280;30022;55.846;37.340;2022-12-08T15:08:07;46509.56;;;-143.51;22.43
44309;BME280;30022;55.846;37.340;2022-12-08T15:10:37;46481.94;;;-143.51;22.41
44309;BME280;30022;55.846;37.340;2022-12-08T15:20:41;46493.78;;;-143.51;22.28
44309;BME280;30022;55.846;37.340;2022-12-08T15:25:53;46515.50;;;-143.51;22.13
44309;BME280;30022;55.846;37.340;2022-12-08T15:28:21;46491.81;;;-143.51;22.14
44309;BME280;30022;55.846;37.340;2022-12-08T15:30:47;46523.41;;;-143.51;22.08
44309;BME280;30022;55.846;37.340;2022-12-08T15:33:13;46521.44;;;-143.51;22.01
44309;BME280;30022;55.846;37.340;2022-12-08T15:35:39;46521.44;;;-143.51;22.17
44309;BME280;30022;55.846;37.340;2022-12-08T15:38:05;46481.94;;;-143.51;22.15
44309;BME280;30022;55.846;37.340;2022-12-08T15:40:30;46493.78;;;-143.51;22.13
44309;BME280;30022;55.846;37.340;2022-12-08T15:42:57;46477.97;;;-143.51;22.09
44309;BME280;30022;55.846;37.340;2022-12-08T15:45:32;46497.72;;;-143.51;22.19
44309;BME280;30022;55.846;37.340;2022-12-08T15:47:58;46489.84;;;-143.51;22.03
44309;BME280;30022;55.846;37.340;2022-12-08T15:50:27;46501.69;;;-143.51;21.87
44309;BME280;30022;55.846;37.340;2022-12-08T15:52:58;46513.53;;;-143.51;22.09
44309;BME280;30022;55.846;37.340;2022-12-08T15:55:23;46501.69;;;-143.51;22.21
44309;BME280;30022;55.846;37.340;2022-12-08T15:57:50;46507.59;;;-143.51;22.07
44309;BME280;30022;55.846;37.340;2022-12-08T16:02:43;46505.63;;;-143.51;22.16
44309;BME280;30022;55.846;37.340;2022-12-08T16:05:09;46517.47;;;-143.51;22.08
44309;BME280;30022;55.846;37.340;2022-12-08T16:07:35;46521.44;;;-143.51;22.18
44309;BME280;30022;55.846;37.340;2022-12-08T16:10:04;46509.56;;;-143.51;22.08
44309;BME280;30022;55.846;37.340;2022-12-08T16:12:29;46481.94;;;-143.51;22.27
44309;BME280;30022;55.846;37.340;2022-12-08T16:15:14;46545.13;;;-143.51;21.78
44309;BME280;30022;55.846;37.340;2022-12-08T16:17:39;46499.72;;;-143.51;21.69
44309;BME280;30022;55.846;37.340;2022-12-08T16:20:06;46519.44;;;-143.51;22.22
44309;BME280;30022;55.846;37.340;2022-12-08T16:22:32;46533.28;;;-143.51;22.27
44309;BME280;30022;55.846;37.340;2022-12-08T16:24:58;46531.31;;;-143.51;22.13
44309;BME280;30022;55.846;37.340;2022-12-08T16:27:28;46507.59;;;-143.51;22.10
44309;BME280;30022;55.846;37.340;2022-12-08T16:29:57;46519.44;;;-143.51;21.91
44309;BME280;30022;55.846;37.340;2022-12-08T16:32:24;46531.31;;;-143.51;22.13
44309;BME280;30022;55.846;37.340;2022-12-08T16:34:50;46503.66;;;-143.51;22.28
44309;BME280;30022;55.846;37.340;2022-12-08T16:37:17;46503.66;;;-143.51;22.16
44309;BME280;30022;55.846;37.340;2022-12-08T16:39:43;46495.75;;;-143.51;22.05
44309;BME280;30022;55.846;37.340;2022-12-08T16:42:11;46489.84;;;-143.51;22.11
44309;BME280;30022;55.846;37.340;2022-12-08T16:44:55;46539.19;;;-143.51;22.05
44309;BME280;30022;55.846;37.340;2022-12-08T16:47:22;46523.41;;;-143.51;22.08
44309;BME280;30022;55.846;37.340;2022-12-08T16:49:47;46525.38;;;-143.51;22.13
44309;BME280;30022;55.846;37.340;2022-12-08T16:52:13;46495.75;;;-143.51;22.02
44309;BME280;30022;55.846;37.340;2022-12-08T16:54:39;46519.44;;;-143.51;22.16
44309;BME280;30022;55.846;37.340;2022-12-08T16:57:05;46491.81;;;-143.51;22.17
44309;BME280;30022;55.846;37.340;2022-12-08T16:59:31;46493.78;;;-143.51;22.42
44309;BME280;30022;55.846;37.340;2022-12-08T17:01:58;46529.31;;;-143.51;22.29
44309;BME280;30022;55.846;37.340;2022-12-08T17:04:23;46515.50;;;-143.51;22.35
44309;BME280;30022;55.846;37.340;2022-12-08T17:06:49;46513.53;;;-143.51;22.37
44309;BME280;30022;55.846;37.340;2022-12-08T17:09:17;46521.44;;;-143.51;22.50
44309;BME280;30022;55.846;37.340;2022-12-08T17:11:43;46517.47;;;-143.51;22.25
44309;BME280;30022;55.846;37.340;2022-12-08T17:14:10;46505.63;;;-143.51;22.32
44309;BME280;30022;55.846;37.340;2022-12-08T17:16:36;46513.53;;;-143.51;22.26
44309;BME280;30022;55.846;37.340;2022-12-08T17:19:02;46515.50;;;-143.51;22.46
44309;BME280;30022;55.846;37.340;2022-12-08T17:21:28;46511.56;;;-143.51;22.36
44309;BME280;30022;55.846;37.340;2022-12-08T17:23:54;46509.56;;;-143.51;22.35
44309;BME280;30022;55.846;37.340;2022-12-08T17:26:23;46523.41;;;-143.51;22.24
44309;BME280;30022;55.846;37.340;2022-12-08T17:28:48;46517.47;;;-143.51;22.31
44309;BME280;30022;55.846;37.340;2022-12-08T17:31:14;46517.47;;;-143.51;22.32
44309;BME280;30022;55.846;37.340;2022-12-08T17:33:40;46519.44;;;-143.51;22.40
44309;BME280;30022;55.846;37.340;2022-12-08T17:36:07;46523.41;;;-143.51;22.37
44309;BME280;30022;55.846;37.340;2022-12-08T17:38:33;46493.78;;;-143.51;22.22
44309;BME280;30022;55.846;37.340;2022-12-08T17:41:03;46511.56;;;-143.51;22.12
44309;BME280;30022;55.846;37.340;2022-12-08T17:43:29;46497.72;;;-143.51;22.48
44309;BME280;30022;55.846;37.340;2022-12-08T17:45:54;46499.72;;;-143.51;22.32
44309;BME280;30022;55.846;37.340;2022-12-08T17:48:20;46558.94;;;-143.51;21.68
44309;BME280;30022;55.846;37.340;2022-12-08T17:50:46;46547.09;;;-143.51;21.63
44309;BME280;30022;55.846;37.340;2022-12-08T17:53:12;46566.84;;;-143.51;21.45
44309;BME280;30022;55.846;37.340;2022-12-08T17:55:38;46553.03;;;-143.51;21.28
44309;BME280;30022;55.846;37.340;2022-12-08T17:58:04;46505.63;;;-143.51;22.05
44309;BME280;30022;55.846;37.340;2022-12-08T18:00:30;46470.09;;;-143.51;22.59
44309;BME280;30022;55.846;37.340;2022-12-08T18:02:56;46485.88;;;-143.51;22.71
44309;BME280;30022;55.846;37.340;2022-12-08T18:05:21;46511.56;;;-143.51;22.61
44309;BME280;30022;55.846;37.340;2022-12-08T18:07:47;46493.78;;;-143.51;22.68
44309;BME280;30022;55.846;37.340;2022-12-08T18:10:14;46513.53;;;-143.51;22.62
44309;BME280;30022;55.846;37.340;2022-12-08T18:12:39;46525.38;;;-143.51;22.68